createdAt,value
2019-01-09T00:01:01.000Z,4.80
2019-01-09T00:03:29.257Z,4.80
2019-01-09T00:05:56.927Z,4.80
2019-01-09T00:08:25.221Z,4.80
2019-01-09T00:10:52.922Z,4.80
2019-01-09T00:13:20.924Z,4.70
2019-01-09T00:15:48.536Z,4.70
2019-01-09T00:18:16.210Z,4.70
2019-01-09T00:20:43.826Z,4.60
2019-01-09T00:23:11.570Z,4.60
2019-01-09T00:25:39.096Z,4.60
2019-01-09T00:28:06.757Z,4.70
2019-01-09T00:30:34.808Z,4.70
2019-01-09T00:33:02.488Z,4.70
2019-01-09T00:35:37.328Z,4.60
2019-01-09T00:37:59.935Z,4.60
2019-01-09T00:40:27.782Z,4.60
2019-01-09T00:42:57.291Z,4.60
2019-01-09T00:45:25.200Z,4.60
2019-01-09T00:47:52.779Z,4.60
2019-01-09T00:50:22.793Z,4.60
2019-01-09T00:52:57.896Z,4.60
2019-01-09T00:55:25.431Z,4.60
2019-01-09T00:57:53.152Z,4.50
2019-01-09T01:00:20.883Z,4.50
2019-01-09T01:03:24.022Z,4.50
2019-01-09T01:06:22.933Z,4.60
2019-01-09T01:09:38.235Z,4.50
2019-01-09T01:12:30.672Z,4.50
2019-01-09T01:15:36.267Z,4.50
2019-01-09T01:18:40.191Z,4.40
2019-01-09T01:21:33.456Z,4.40
2019-01-09T01:24:31.422Z,4.40
2019-01-09T01:27:52.640Z,4.30
2019-01-09T01:30:58.926Z,4.30
2019-01-09T01:33:38.056Z,4.30
2019-01-09T01:36:33.311Z,4.30
2019-01-09T01:39:30.525Z,4.20
2019-01-09T01:42:55.288Z,4.20
2019-01-09T01:45:57.091Z,4.20
2019-01-09T01:49:24.541Z,4.20
2019-01-09T01:52:25.478Z,4.20
2019-01-09T01:55:33.362Z,4.20
2019-01-09T01:58:39.734Z,4.20
2019-01-09T02:02:04.505Z,4.20
2019-01-09T02:05:14.760Z,4.20
2019-01-09T02:08:12.802Z,4.20
2019-01-09T02:11:31.053Z,4.20
2019-01-09T02:14:27.845Z,4.10
2019-01-09T02:17:23.870Z,4.10
2019-01-09T02:20:41.902Z,4.00
2019-01-09T02:23:24.310Z,4.00
2019-01-09T02:26:40.138Z,4.00
2019-01-09T02:29:35.305Z,4.00
2019-01-09T02:32:33.298Z,4.00
2019-01-09T02:35:01.072Z,4.00
2019-01-09T02:37:28.611Z,4.00
2019-01-09T02:39:56.328Z,4.10
2019-01-09T02:42:24.016Z,4.10
2019-01-09T02:44:51.763Z,4.10
2019-01-09T02:47:19.422Z,4.10
2019-01-09T02:49:47.127Z,4.20
2019-01-09T02:52:14.897Z,4.20
2019-01-09T02:54:42.744Z,4.20
2019-01-09T02:57:10.228Z,4.30
2019-01-09T02:59:38.020Z,4.20
2019-01-09T03:02:05.658Z,4.20
2019-01-09T03:04:34.621Z,4.20
2019-01-09T03:07:02.617Z,4.20
2019-01-09T03:09:30.584Z,4.10
2019-01-09T03:11:58.484Z,4.10
2019-01-09T03:14:26.392Z,4.10
2019-01-09T03:16:54.272Z,4.00
2019-01-09T03:19:21.835Z,4.10
2019-01-09T03:21:49.294Z,4.10
2019-01-09T03:24:17.290Z,4.10
2019-01-09T03:26:45.284Z,4.10
2019-01-09T03:29:12.817Z,4.10
2019-01-09T03:31:40.470Z,4.10
2019-01-09T03:34:08.331Z,4.10
2019-01-09T03:36:35.916Z,4.10
2019-01-09T03:39:05.230Z,4.10
2019-01-09T03:41:32.897Z,4.10
2019-01-09T03:44:00.434Z,4.10
2019-01-09T03:46:28.075Z,4.10
2019-01-09T03:48:55.658Z,4.10
2019-01-09T03:51:23.240Z,4.20
2019-01-09T03:53:51.004Z,4.10
2019-01-09T03:56:18.602Z,4.20
2019-01-09T03:58:46.168Z,4.20
2019-01-09T04:01:13.726Z,4.20
2019-01-09T04:03:41.380Z,4.20
2019-01-09T04:06:09.732Z,4.20
2019-01-09T04:08:37.228Z,4.20
2019-01-09T04:11:04.873Z,4.10
2019-01-09T04:13:32.817Z,4.10
2019-01-09T04:16:00.428Z,4.00
2019-01-09T04:18:28.042Z,3.90
2019-01-09T04:20:55.626Z,3.90
2019-01-09T04:23:23.274Z,3.90
2019-01-09T04:25:51.089Z,3.80
2019-01-09T04:28:19.025Z,3.80
2019-01-09T04:30:46.727Z,3.70
2019-01-09T04:33:14.452Z,3.70
2019-01-09T04:35:42.307Z,3.70
2019-01-09T04:38:09.831Z,3.70
2019-01-09T04:40:40.082Z,3.60
2019-01-09T04:43:07.815Z,3.60
2019-01-09T04:45:35.325Z,3.60
2019-01-09T04:48:03.085Z,3.50
2019-01-09T04:50:30.662Z,3.50
2019-01-09T04:52:59.141Z,3.50
2019-01-09T04:55:26.882Z,3.50
2019-01-09T04:57:54.538Z,3.50
2019-01-09T05:00:22.287Z,3.50
2019-01-09T05:02:50.075Z,3.50
2019-01-09T05:05:17.784Z,3.60
2019-01-09T05:07:45.424Z,3.60
2019-01-09T05:10:13.078Z,3.60
2019-01-09T05:12:40.834Z,3.70
2019-01-09T05:15:08.749Z,3.70
2019-01-09T05:17:36.597Z,3.70
2019-01-09T05:20:04.581Z,3.70
2019-01-09T05:22:32.120Z,3.70
2019-01-09T05:24:59.991Z,3.70
2019-01-09T05:27:27.627Z,3.70
2019-01-09T05:29:55.207Z,3.70
2019-01-09T05:32:22.965Z,3.70
2019-01-09T05:34:51.969Z,3.70
2019-01-09T05:37:19.565Z,3.70
2019-01-09T05:39:48.270Z,3.70
2019-01-09T05:42:17.039Z,3.70
2019-01-09T05:44:44.741Z,3.70
2019-01-09T05:47:12.396Z,3.70
2019-01-09T05:49:40.199Z,3.70
2019-01-09T05:52:09.130Z,3.70
2019-01-09T05:54:36.833Z,3.70
2019-01-09T05:57:04.491Z,3.80
2019-01-09T05:59:32.050Z,3.80
2019-01-09T06:01:59.511Z,3.80
2019-01-09T06:04:27.184Z,3.80
2019-01-09T06:06:54.793Z,3.80
2019-01-09T06:09:22.387Z,3.80
2019-01-09T06:11:49.875Z,3.80
2019-01-09T06:14:17.451Z,3.80
2019-01-09T06:16:45.283Z,3.70
2019-01-09T06:19:12.822Z,3.70
2019-01-09T06:21:40.462Z,3.70
2019-01-09T06:24:08.107Z,3.70
2019-01-09T06:26:36.671Z,3.80
2019-01-09T06:29:04.352Z,3.90
2019-01-09T06:31:31.847Z,3.80
2019-01-09T06:33:59.297Z,3.90
2019-01-09T06:36:26.878Z,3.90
2019-01-09T06:38:54.318Z,3.90
2019-01-09T06:41:21.840Z,3.90
2019-01-09T06:43:49.300Z,3.90
2019-01-09T06:46:16.828Z,3.90
2019-01-09T06:48:46.469Z,3.90
2019-01-09T06:51:14.091Z,3.90
2019-01-09T06:53:41.568Z,3.80
2019-01-09T06:56:09.327Z,3.70
2019-01-09T06:58:36.982Z,3.70
2019-01-09T07:01:04.606Z,3.70
2019-01-09T07:03:32.346Z,3.60
2019-01-09T07:06:00.079Z,3.60
2019-01-09T07:08:28.431Z,3.50
2019-01-09T07:10:56.117Z,3.50
2019-01-09T07:13:23.814Z,3.50
2019-01-09T07:15:51.654Z,3.50
2019-01-09T07:18:19.297Z,3.40
2019-01-09T07:20:47.461Z,3.40
2019-01-09T07:23:28.367Z,3.40
2019-01-09T07:25:56.869Z,3.50
2019-01-09T07:28:25.430Z,3.40
2019-01-09T07:30:53.795Z,3.40
2019-01-09T07:33:22.197Z,3.50
2019-01-09T07:35:51.032Z,3.50
2019-01-09T07:38:19.479Z,3.50
2019-01-09T07:40:47.821Z,3.50
2019-01-09T07:43:17.172Z,3.50
2019-01-09T07:45:45.233Z,3.50
2019-01-09T07:48:13.571Z,3.60
2019-01-09T07:50:41.818Z,3.60
2019-01-09T07:53:09.961Z,3.60
2019-01-09T07:55:38.201Z,3.70
2019-01-09T07:58:06.619Z,3.70
2019-01-09T08:00:34.956Z,3.60
2019-01-09T08:03:03.285Z,3.60
2019-01-09T08:05:31.429Z,3.70
2019-01-09T08:07:59.635Z,3.70
2019-01-09T08:10:27.711Z,3.70
2019-01-09T08:12:56.108Z,3.70
2019-01-09T08:15:24.162Z,3.60
2019-01-09T08:17:52.640Z,3.60
2019-01-09T08:20:21.075Z,3.60
2019-01-09T08:22:49.195Z,3.50
2019-01-09T08:25:17.470Z,3.60
2019-01-09T08:27:45.730Z,3.50
2019-01-09T08:30:14.063Z,3.50
2019-01-09T08:32:42.407Z,3.60
2019-01-09T08:35:10.706Z,3.60
2019-01-09T08:37:39.275Z,3.50
2019-01-09T08:40:08.594Z,3.60
2019-01-09T08:42:36.875Z,3.50
2019-01-09T08:45:06.491Z,3.60
2019-01-09T08:47:34.654Z,3.60
2019-01-09T08:50:04.139Z,3.60
2019-01-09T08:52:32.704Z,3.60
2019-01-09T08:55:00.703Z,3.60
2019-01-09T08:57:28.780Z,3.60
2019-01-09T08:59:57.934Z,3.60
2019-01-09T09:02:26.094Z,3.50
2019-01-09T09:04:54.389Z,3.50
2019-01-09T09:07:24.495Z,3.50
2019-01-09T09:09:52.616Z,3.40
2019-01-09T09:12:20.993Z,3.40
2019-01-09T09:14:49.085Z,3.40
2019-01-09T09:17:17.162Z,3.40
2019-01-09T09:19:45.236Z,3.40
2019-01-09T09:22:13.770Z,3.40
2019-01-09T09:24:41.902Z,3.50
2019-01-09T09:27:10.104Z,3.60
2019-01-09T09:29:38.014Z,3.70
2019-01-09T09:32:06.163Z,3.80
2019-01-09T09:34:34.427Z,3.90
2019-01-09T09:37:02.543Z,4.00
2019-01-09T09:39:30.614Z,4.00
2019-01-09T09:41:58.883Z,4.10
2019-01-09T09:44:27.137Z,4.20
2019-01-09T09:46:55.184Z,4.20
2019-01-09T09:49:23.403Z,4.30
2019-01-09T09:51:51.343Z,4.40
2019-01-09T09:54:19.361Z,4.40
2019-01-09T09:56:47.493Z,4.50
2019-01-09T09:59:15.600Z,4.50
2019-01-09T10:01:44.841Z,4.50
2019-01-09T10:04:12.997Z,4.40
2019-01-09T10:06:40.912Z,4.40
2019-01-09T10:09:10.134Z,4.50
2019-01-09T10:11:38.203Z,4.50
2019-01-09T10:14:06.380Z,4.50
2019-01-09T10:16:36.753Z,4.50
2019-01-09T10:19:05.029Z,4.60
2019-01-09T10:21:33.036Z,4.70
2019-01-09T10:24:01.122Z,4.80
2019-01-09T10:26:29.336Z,4.80
2019-01-09T10:28:57.560Z,4.90
2019-01-09T10:31:25.878Z,4.90
2019-01-09T10:33:54.234Z,5.00
2019-01-09T10:36:22.190Z,5.00
2019-01-09T10:38:50.622Z,5.00
2019-01-09T10:41:18.821Z,5.00
2019-01-09T10:43:46.908Z,5.10
2019-01-09T10:46:15.416Z,5.00
2019-01-09T10:48:43.633Z,5.00
2019-01-09T10:51:11.518Z,5.00
2019-01-09T10:53:39.569Z,5.00
2019-01-09T10:56:07.851Z,5.00
2019-01-09T10:58:36.717Z,4.90
2019-01-09T11:01:05.106Z,4.90
2019-01-09T11:03:33.705Z,4.80
2019-01-09T11:06:01.936Z,4.70
2019-01-09T11:08:30.847Z,4.60
2019-01-09T11:10:58.968Z,4.50
2019-01-09T11:13:27.018Z,4.50
2019-01-09T11:15:55.130Z,4.40
2019-01-09T11:18:23.295Z,4.30
2019-01-09T11:20:51.346Z,4.30
2019-01-09T11:23:22.096Z,4.30
2019-01-09T11:25:50.443Z,4.40
2019-01-09T11:28:19.153Z,4.40
2019-01-09T11:30:47.274Z,4.50
2019-01-09T11:33:15.486Z,4.60
2019-01-09T11:35:43.627Z,4.60
2019-01-09T11:38:12.363Z,4.60
2019-01-09T11:40:40.494Z,4.60
2019-01-09T11:43:09.050Z,4.60
2019-01-09T11:45:37.237Z,4.50
2019-01-09T11:48:05.519Z,4.40
2019-01-09T11:50:33.505Z,4.30
2019-01-09T11:53:02.055Z,4.20
2019-01-09T11:55:30.668Z,4.10
2019-01-09T11:57:58.679Z,4.00
2019-01-09T12:00:29.121Z,3.80
2019-01-09T12:02:57.335Z,3.70
2019-01-09T12:05:25.616Z,3.60
2019-01-09T12:07:53.633Z,3.40
2019-01-09T12:10:29.791Z,3.30
2019-01-09T12:12:52.900Z,3.30
2019-01-09T12:15:24.581Z,3.30
2019-01-09T12:17:52.638Z,3.50
2019-01-09T12:20:21.033Z,3.70
2019-01-09T12:22:49.496Z,4.00
2019-01-09T12:25:18.087Z,4.40
2019-01-09T12:27:46.569Z,4.80
2019-01-09T12:30:20.644Z,5.10
2019-01-09T12:32:48.788Z,5.50
2019-01-09T12:35:16.913Z,5.80
2019-01-09T12:37:44.991Z,6.20
2019-01-09T12:40:13.562Z,6.50
2019-01-09T12:42:41.897Z,6.80
2019-01-09T12:45:11.307Z,7.10
2019-01-09T12:47:39.522Z,7.30
2019-01-09T12:50:14.139Z,7.50
2019-01-09T12:52:41.936Z,7.50
2019-01-09T12:55:10.310Z,7.50
2019-01-09T12:57:38.826Z,7.50
2019-01-09T13:00:19.767Z,7.40
2019-01-09T13:02:50.824Z,7.40
2019-01-09T13:05:19.166Z,7.20
2019-01-09T13:07:47.370Z,7.10
2019-01-09T13:10:15.617Z,7.00
2019-01-09T13:12:43.777Z,6.90
2019-01-09T13:15:11.965Z,6.80
2019-01-09T13:17:40.088Z,6.80
2019-01-09T13:20:09.746Z,6.70
2019-01-09T13:22:38.026Z,6.70
2019-01-09T13:25:06.739Z,6.70
2019-01-09T13:27:35.116Z,6.50
2019-01-09T13:30:04.969Z,6.40
2019-01-09T13:32:33.506Z,6.20
2019-01-09T13:35:01.823Z,6.00
2019-01-09T13:37:30.913Z,5.90
2019-01-09T13:39:59.007Z,5.70
2019-01-09T13:42:27.190Z,5.50
2019-01-09T13:44:56.605Z,5.40
2019-01-09T13:47:24.697Z,5.20
2019-01-09T13:49:52.950Z,5.10
2019-01-09T13:52:21.232Z,5.00
2019-01-09T13:54:49.614Z,4.80
2019-01-09T13:57:17.909Z,4.80
2019-01-09T13:59:46.200Z,4.80
2019-01-09T14:02:14.279Z,4.70
2019-01-09T14:04:42.653Z,4.70
2019-01-09T14:07:10.740Z,4.60
2019-01-09T14:09:39.853Z,4.50
2019-01-09T14:12:08.132Z,4.40
2019-01-09T14:14:36.415Z,4.30
2019-01-09T14:17:04.772Z,4.30
2019-01-09T14:19:33.298Z,4.30
2019-01-09T14:22:01.548Z,4.30
2019-01-09T14:24:29.720Z,4.20
2019-01-09T14:26:58.128Z,4.10
2019-01-09T14:29:26.368Z,4.00
2019-01-09T14:31:54.647Z,4.00
2019-01-09T14:34:22.890Z,4.00
2019-01-09T14:36:51.046Z,3.90
2019-01-09T14:39:19.537Z,4.00
2019-01-09T14:41:47.991Z,4.00
2019-01-09T14:44:16.330Z,4.00
2019-01-09T14:46:44.655Z,4.00
2019-01-09T14:49:12.886Z,4.00
2019-01-09T14:51:43.322Z,4.10
2019-01-09T14:54:11.261Z,4.10
2019-01-09T14:56:39.530Z,4.10
2019-01-09T14:59:07.878Z,4.10
2019-01-09T15:01:36.128Z,4.20
2019-01-09T15:04:04.498Z,4.10
2019-01-09T15:06:32.633Z,4.00
2019-01-09T15:09:00.863Z,3.90
2019-01-09T15:11:29.880Z,3.90
2019-01-09T15:13:58.250Z,3.80
2019-01-09T15:16:26.086Z,3.60
2019-01-09T15:18:54.222Z,3.50
2019-01-09T15:21:22.599Z,3.30
2019-01-09T15:23:50.557Z,3.30
2019-01-09T15:26:18.881Z,3.20
2019-01-09T15:28:46.994Z,3.20
2019-01-09T15:31:15.255Z,3.20
2019-01-09T15:33:44.568Z,3.20
2019-01-09T15:36:13.139Z,3.30
2019-01-09T15:38:41.145Z,3.30
2019-01-09T15:41:09.101Z,3.30
2019-01-09T15:43:37.457Z,3.30
2019-01-09T15:46:05.884Z,3.40
2019-01-09T15:48:34.349Z,3.40
2019-01-09T15:51:02.509Z,3.40
2019-01-09T15:53:30.884Z,3.40
2019-01-09T15:55:59.086Z,3.40
2019-01-09T15:58:27.451Z,3.40
2019-01-09T16:00:58.784Z,3.40
2019-01-09T16:03:27.165Z,3.40
2019-01-09T16:05:55.049Z,3.30
2019-01-09T16:08:23.129Z,3.30
2019-01-09T16:10:51.000Z,3.30
2019-01-09T16:13:19.153Z,3.30
2019-01-09T16:15:47.326Z,3.20
2019-01-09T16:18:15.699Z,3.10
2019-01-09T16:20:43.874Z,3.00
2019-01-09T16:23:11.880Z,3.00
2019-01-09T16:25:40.170Z,2.90
2019-01-09T16:28:08.653Z,2.90
2019-01-09T16:31:10.374Z,2.80
2019-01-09T16:33:52.617Z,2.70
2019-01-09T16:36:21.050Z,2.60
2019-01-09T16:38:48.932Z,2.60
2019-01-09T16:41:17.148Z,2.60
2019-01-09T16:43:47.087Z,2.60
2019-01-09T16:46:15.838Z,2.60
2019-01-09T16:48:45.212Z,2.60
2019-01-09T16:51:13.485Z,2.60
2019-01-09T16:53:41.665Z,2.50
2019-01-09T16:56:09.963Z,2.60
2019-01-09T16:58:38.410Z,2.70
2019-01-09T17:01:06.988Z,2.70
2019-01-09T17:03:35.384Z,2.70
2019-01-09T17:06:15.030Z,2.80
2019-01-09T17:08:43.299Z,2.80
2019-01-09T17:11:11.698Z,2.80
2019-01-09T17:13:39.865Z,2.90
2019-01-09T17:16:08.226Z,2.90
2019-01-09T17:18:36.610Z,2.90
2019-01-09T17:21:05.068Z,2.80
2019-01-09T17:23:33.470Z,2.80
2019-01-09T17:26:01.764Z,2.80
2019-01-09T17:28:29.918Z,2.80
2019-01-09T17:30:58.459Z,2.80
2019-01-09T17:33:26.689Z,2.80
2019-01-09T17:36:01.863Z,2.90
2019-01-09T17:38:30.463Z,2.80
2019-01-09T17:40:58.634Z,2.90
2019-01-09T17:43:26.892Z,2.90
2019-01-09T17:45:55.068Z,2.90
2019-01-09T17:48:23.256Z,2.80
2019-01-09T17:50:51.377Z,2.80
2019-01-09T17:53:19.730Z,2.80
2019-01-09T17:55:48.163Z,2.80
2019-01-09T17:58:16.518Z,2.80
2019-01-09T18:00:45.422Z,2.70
2019-01-09T18:03:14.063Z,2.60
2019-01-09T18:05:42.229Z,2.60
2019-01-09T18:08:12.146Z,2.60
2019-01-09T18:10:49.672Z,2.60
2019-01-09T18:13:10.634Z,2.50
2019-01-09T18:15:38.910Z,2.60
2019-01-09T18:18:07.139Z,2.60
2019-01-09T18:20:35.373Z,2.60
2019-01-09T18:23:30.272Z,2.60
2019-01-09T18:25:58.703Z,2.50
2019-01-09T18:28:27.214Z,2.50
2019-01-09T18:31:14.043Z,2.50
2019-01-09T18:33:52.795Z,2.50
2019-01-09T18:36:55.315Z,2.50
2019-01-09T18:40:05.406Z,2.40
2019-01-09T18:43:11.492Z,2.40
2019-01-09T18:46:36.570Z,2.40
2019-01-09T18:49:57.030Z,2.40
2019-01-09T18:52:50.903Z,2.30
2019-01-09T18:55:19.046Z,2.30
2019-01-09T18:57:47.412Z,2.30
2019-01-09T19:00:19.198Z,2.30
2019-01-09T19:02:47.754Z,2.30
2019-01-09T19:05:16.691Z,2.30
2019-01-09T19:07:45.167Z,2.30
2019-01-09T19:10:16.779Z,2.30
2019-01-09T19:12:45.648Z,2.40
2019-01-09T19:15:14.837Z,2.30
2019-01-09T19:17:43.398Z,2.30
2019-01-09T19:20:12.007Z,2.30
2019-01-09T19:22:40.495Z,2.30
2019-01-09T19:25:09.459Z,2.30
2019-01-09T19:27:37.791Z,2.30
2019-01-09T19:30:11.253Z,2.30
2019-01-09T19:32:39.437Z,2.40
2019-01-09T19:35:07.901Z,2.40
2019-01-09T19:37:36.626Z,2.40
2019-01-09T19:40:05.410Z,2.40
2019-01-09T19:42:33.740Z,2.40
2019-01-09T19:45:02.247Z,2.40
2019-01-09T19:47:30.815Z,2.40
2019-01-09T19:49:59.186Z,2.30
2019-01-09T19:52:27.623Z,2.30
2019-01-09T19:54:56.690Z,2.30
2019-01-09T19:57:24.954Z,2.40
2019-01-09T19:59:53.562Z,2.30
2019-01-09T20:02:21.814Z,2.40
2019-01-09T20:04:50.135Z,2.40
2019-01-09T20:07:18.398Z,2.40
2019-01-09T20:09:46.763Z,2.40
2019-01-09T20:12:15.127Z,2.40
2019-01-09T20:14:43.289Z,2.40
2019-01-09T20:17:11.657Z,2.40
2019-01-09T20:19:39.853Z,2.30
2019-01-09T20:22:08.158Z,2.40
2019-01-09T20:24:36.730Z,2.40
2019-01-09T20:27:05.119Z,2.30
2019-01-09T20:29:33.493Z,2.40
2019-01-09T20:32:01.805Z,2.30
2019-01-09T20:34:30.076Z,2.30
2019-01-09T20:36:58.552Z,2.30
2019-01-09T20:39:27.328Z,2.20
2019-01-09T20:41:55.480Z,2.20
2019-01-09T20:44:23.616Z,2.20
2019-01-09T20:46:59.605Z,2.20
2019-01-09T20:49:27.919Z,2.20
2019-01-09T20:51:56.103Z,2.20
2019-01-09T20:54:24.267Z,2.20
2019-01-09T20:56:52.809Z,2.20
2019-01-09T20:59:20.948Z,2.20
2019-01-09T21:01:49.259Z,2.20
2019-01-09T21:04:18.377Z,2.20
2019-01-09T21:06:46.828Z,2.20
2019-01-09T21:09:14.929Z,2.30
2019-01-09T21:11:44.521Z,2.30
2019-01-09T21:14:12.982Z,2.30
2019-01-09T21:16:41.136Z,2.30
2019-01-09T21:19:10.022Z,2.30
2019-01-09T21:21:38.721Z,2.30
2019-01-09T21:24:07.033Z,2.40
2019-01-09T21:26:35.498Z,2.40
2019-01-09T21:29:05.267Z,2.40
2019-01-09T21:31:34.089Z,2.40
2019-01-09T21:34:02.718Z,2.40
2019-01-09T21:36:30.954Z,2.40
2019-01-09T21:38:59.294Z,2.40
2019-01-09T21:41:27.604Z,2.40
2019-01-09T21:43:56.339Z,2.40
2019-01-09T21:46:24.912Z,2.40
2019-01-09T21:48:53.015Z,2.50
2019-01-09T21:51:23.006Z,2.50
2019-01-09T21:53:51.778Z,2.50
2019-01-09T21:56:22.135Z,2.50
2019-01-09T21:58:51.600Z,2.50
2019-01-09T22:01:22.593Z,2.40
2019-01-09T22:03:51.657Z,2.50
2019-01-09T22:06:19.997Z,2.50
2019-01-09T22:08:48.688Z,2.50
2019-01-09T22:11:17.047Z,2.50
2019-01-09T22:13:47.096Z,2.50
2019-01-09T22:16:15.424Z,2.50
2019-01-09T22:18:43.436Z,2.50
2019-01-09T22:21:11.686Z,2.40
2019-01-09T22:23:39.921Z,2.40
2019-01-09T22:26:08.177Z,2.40
2019-01-09T22:28:36.298Z,2.40
2019-01-09T22:31:04.780Z,2.40
2019-01-09T22:33:32.962Z,2.40
2019-01-09T22:36:01.155Z,2.40
2019-01-09T22:38:29.431Z,2.40
2019-01-09T22:40:57.881Z,2.30
2019-01-09T22:43:26.466Z,2.40
2019-01-09T22:45:54.665Z,2.40
2019-01-09T22:48:22.962Z,2.30
2019-01-09T22:50:51.040Z,2.30
2019-01-09T22:53:18.978Z,2.30
2019-01-09T22:55:47.219Z,2.30
2019-01-09T22:58:15.209Z,2.30
2019-01-09T23:00:59.655Z,2.30
2019-01-09T23:03:27.864Z,2.30
2019-01-09T23:05:56.042Z,2.30
2019-01-09T23:08:24.063Z,2.30
2019-01-09T23:10:55.020Z,2.30
2019-01-09T23:13:22.190Z,2.30
2019-01-09T23:15:50.513Z,2.30
2019-01-09T23:18:18.938Z,2.30
2019-01-09T23:20:47.210Z,2.30
2019-01-09T23:23:15.906Z,2.30
2019-01-09T23:25:43.982Z,2.30
2019-01-09T23:28:13.283Z,2.20
2019-01-09T23:30:41.567Z,2.20
2019-01-09T23:33:10.237Z,2.20
2019-01-09T23:35:38.411Z,2.20
2019-01-09T23:38:06.449Z,2.30
2019-01-09T23:40:35.592Z,2.20
2019-01-09T23:43:03.979Z,2.20
2019-01-09T23:45:32.239Z,2.20
2019-01-09T23:48:00.215Z,2.20
2019-01-09T23:50:28.854Z,2.20
2019-01-09T23:52:57.192Z,2.20
2019-01-09T23:55:26.464Z,2.20
2019-01-09T23:57:54.973Z,2.20
